sensor_id;sensor_type;location;lat;lon;timestamp;temperature;humidity
73133;DHT22;61320;52.008;4.530;2023-06-22T00:00:52;19.91;70.41
73133;DHT22;61320;52.008;4.530;2023-06-22T00:03:19;19.91;70.40
73133;DHT22;61320;52.008;4.530;2023-06-22T00:05:48;19.91;70.32
73133;DHT22;61320;52.008;4.530;2023-06-22T00:08:15;19.87;70.55
73133;DHT22;61320;52.008;4.530;2023-06-22T00:10:41;19.81;70.68
73133;DHT22;61320;52.008;4.530;2023-06-22T00:13:08;19.81;70.86
73133;DHT22;61320;52.008;4.530;2023-06-22T00:15:35;19.79;70.90
73133;DHT22;61320;52.008;4.530;2023-06-22T00:18:01;19.78;71.13
73133;DHT22;61320;52.008;4.530;2023-06-22T00:20:28;19.75;71.14
73133;DHT22;61320;52.008;4.530;2023-06-22T00:22:58;19.73;71.28
73133;DHT22;61320;52.008;4.530;2023-06-22T00:25:24;19.71;71.55
73133;DHT22;61320;52.008;4.530;2023-06-22T00:27:50;19.70;71.61
73133;DHT22;61320;52.008;4.530;2023-06-22T00:30:16;19.73;71.61
73133;DHT22;61320;52.008;4.530;2023-06-22T00:32:43;19.70;71.44
73133;DHT22;61320;52.008;4.530;2023-06-22T00:35:10;19.70;71.73
73133;DHT22;61320;52.008;4.530;2023-06-22T00:37:36;19.64;71.77
73133;DHT22;61320;52.008;4.530;2023-06-22T00:40:05;19.64;71.81
73133;DHT22;61320;52.008;4.530;2023-06-22T00:42:33;19.61;71.98
73133;DHT22;61320;52.008;4.530;2023-06-22T00:44:59;19.66;71.87
73133;DHT22;61320;52.008;4.530;2023-06-22T00:47:24;19.64;71.90
73133;DHT22;61320;52.008;4.530;2023-06-22T00:49:50;19.64;71.73
73133;DHT22;61320;52.008;4.530;2023-06-22T00:52:17;19.61;71.60
73133;DHT22;61320;52.008;4.530;2023-06-22T00:57:17;19.60;71.81
73133;DHT22;61320;52.008;4.530;2023-06-22T00:59:47;19.58;71.79
73133;DHT22;61320;52.008;4.530;2023-06-22T01:02:14;19.58;71.88
73133;DHT22;61320;52.008;4.530;2023-06-22T01:04:40;19.57;71.78
73133;DHT22;61320;52.008;4.530;2023-06-22T01:10:09;19.54;71.68
73133;DHT22;61320;52.008;4.530;2023-06-22T01:13:00;19.53;71.71
73133;DHT22;61320;52.008;4.530;2023-06-22T01:15:39;19.49;71.82
73133;DHT22;61320;52.008;4.530;2023-06-22T01:18:08;19.49;71.87
73133;DHT22;61320;52.008;4.530;2023-06-22T01:20:36;19.49;71.99
73133;DHT22;61320;52.008;4.530;2023-06-22T01:23:33;19.46;72.00
73133;DHT22;61320;52.008;4.530;2023-06-22T01:28:58;19.46;72.01
73133;DHT22;61320;52.008;4.530;2023-06-22T01:31:27;19.46;72.07
73133;DHT22;61320;52.008;4.530;2023-06-22T01:34:05;19.41;72.11
73133;DHT22;61320;52.008;4.530;2023-06-22T01:36:32;19.41;72.09
73133;DHT22;61320;52.008;4.530;2023-06-22T01:38:59;19.40;72.14
73133;DHT22;61320;52.008;4.530;2023-06-22T01:41:26;19.41;72.20
73133;DHT22;61320;52.008;4.530;2023-06-22T01:43:53;19.39;72.22
73133;DHT22;61320;52.008;4.530;2023-06-22T01:46:21;19.40;72.01
73133;DHT22;61320;52.008;4.530;2023-06-22T01:48:47;19.36;72.02
73133;DHT22;61320;52.008;4.530;2023-06-22T01:51:13;19.34;72.11
73133;DHT22;61320;52.008;4.530;2023-06-22T01:53:39;19.31;72.11
73133;DHT22;61320;52.008;4.530;2023-06-22T01:56:05;19.31;72.16
73133;DHT22;61320;52.008;4.530;2023-06-22T01:58:32;19.29;72.39
73133;DHT22;61320;52.008;4.530;2023-06-22T02:01:12;19.26;72.36
73133;DHT22;61320;52.008;4.530;2023-06-22T02:03:52;19.23;72.52
73133;DHT22;61320;52.008;4.530;2023-06-22T02:06:31;19.24;72.69
73133;DHT22;61320;52.008;4.530;2023-06-22T02:09:02;19.20;72.65
73133;DHT22;61320;52.008;4.530;2023-06-22T02:11:32;19.24;72.80
73133;DHT22;61320;52.008;4.530;2023-06-22T02:13:59;19.22;72.81
73133;DHT22;61320;52.008;4.530;2023-06-22T02:16:26;19.19;72.78
73133;DHT22;61320;52.008;4.530;2023-06-22T02:18:55;19.12;72.78
73133;DHT22;61320;52.008;4.530;2023-06-22T02:21:22;19.10;72.82
73133;DHT22;61320;52.008;4.530;2023-06-22T02:23:47;19.09;72.91
73133;DHT22;61320;52.008;4.530;2023-06-22T02:26:15;19.05;73.02
73133;DHT22;61320;52.008;4.530;2023-06-22T02:28:41;19.06;73.06
73133;DHT22;61320;52.008;4.530;2023-06-22T02:31:07;19.03;73.07
73133;DHT22;61320;52.008;4.530;2023-06-22T02:33:32;19.02;73.13
73133;DHT22;61320;52.008;4.530;2023-06-22T02:35:58;19.00;73.29
73133;DHT22;61320;52.008;4.530;2023-06-22T02:38:23;19.03;73.22
73133;DHT22;61320;52.008;4.530;2023-06-22T02:40:50;19.02;73.17
73133;DHT22;61320;52.008;4.530;2023-06-22T02:43:15;19.00;73.21
73133;DHT22;61320;52.008;4.530;2023-06-22T02:45:41;18.98;73.28
73133;DHT22;61320;52.008;4.530;2023-06-22T02:48:06;19.00;73.46
73133;DHT22;61320;52.008;4.530;2023-06-22T02:50:32;19.00;73.41
73133;DHT22;61320;52.008;4.530;2023-06-22T02:52:57;18.99;73.44
73133;DHT22;61320;52.008;4.530;2023-06-22T02:55:23;19.00;73.42
73133;DHT22;61320;52.008;4.530;2023-06-22T02:57:49;19.02;73.41
73133;DHT22;61320;52.008;4.530;2023-06-22T03:00:18;19.03;73.34
73133;DHT22;61320;52.008;4.530;2023-06-22T03:02:48;19.00;73.40
73133;DHT22;61320;52.008;4.530;2023-06-22T03:05:14;19.02;73.47
73133;DHT22;61320;52.008;4.530;2023-06-22T03:07:40;19.00;73.55
73133;DHT22;61320;52.008;4.530;2023-06-22T03:10:10;18.95;73.39
73133;DHT22;61320;52.008;4.530;2023-06-22T03:12:40;18.94;73.58
73133;DHT22;61320;52.008;4.530;2023-06-22T03:15:08;18.95;73.57
73133;DHT22;61320;52.008;4.530;2023-06-22T03:17:35;18.94;73.49
73133;DHT22;61320;52.008;4.530;2023-06-22T03:20:01;18.95;73.44
73133;DHT22;61320;52.008;4.530;2023-06-22T03:22:27;18.89;73.57
73133;DHT22;61320;52.008;4.530;2023-06-22T03:24:52;18.87;73.61
73133;DHT22;61320;52.008;4.530;2023-06-22T03:27:18;18.89;73.67
73133;DHT22;61320;52.008;4.530;2023-06-22T03:29:43;18.87;73.57
73133;DHT22;61320;52.008;4.530;2023-06-22T03:32:10;18.89;73.66
73133;DHT22;61320;52.008;4.530;2023-06-22T03:34:35;18.88;73.68
73133;DHT22;61320;52.008;4.530;2023-06-22T03:37:01;18.89;73.71
73133;DHT22;61320;52.008;4.530;2023-06-22T03:39:27;18.85;73.71
73133;DHT22;61320;52.008;4.530;2023-06-22T03:41:52;18.85;73.82
73133;DHT22;61320;52.008;4.530;2023-06-22T03:44:18;18.87;73.69
73133;DHT22;61320;52.008;4.530;2023-06-22T03:46:44;18.84;73.86
73133;DHT22;61320;52.008;4.530;2023-06-22T03:49:09;18.85;73.85
73133;DHT22;61320;52.008;4.530;2023-06-22T03:51:35;18.85;73.91
73133;DHT22;61320;52.008;4.530;2023-06-22T03:54:01;18.84;74.02
73133;DHT22;61320;52.008;4.530;2023-06-22T03:56:26;18.82;73.98
73133;DHT22;61320;52.008;4.530;2023-06-22T03:58:52;18.84;74.08
73133;DHT22;61320;52.008;4.530;2023-06-22T04:01:17;18.84;74.11
73133;DHT22;61320;52.008;4.530;2023-06-22T04:03:43;18.87;74.16
73133;DHT22;61320;52.008;4.530;2023-06-22T04:06:08;18.87;74.16
73133;DHT22;61320;52.008;4.530;2023-06-22T04:08:34;18.87;74.11
73133;DHT22;61320;52.008;4.530;2023-06-22T04:11:00;18.85;74.16
73133;DHT22;61320;52.008;4.530;2023-06-22T04:13:25;18.87;74.12
73133;DHT22;61320;52.008;4.530;2023-06-22T04:15:51;18.87;74.32
73133;DHT22;61320;52.008;4.530;2023-06-22T04:18:16;18.91;74.27
73133;DHT22;61320;52.008;4.530;2023-06-22T04:20:42;18.88;74.42
73133;DHT22;61320;52.008;4.530;2023-06-22T04:23:07;18.92;74.44
73133;DHT22;61320;52.008;4.530;2023-06-22T04:25:34;18.94;74.45
73133;DHT22;61320;52.008;4.530;2023-06-22T04:27:59;18.95;74.51
73133;DHT22;61320;52.008;4.530;2023-06-22T04:30:28;18.99;74.45
73133;DHT22;61320;52.008;4.530;2023-06-22T04:32:54;18.99;74.47
73133;DHT22;61320;52.008;4.530;2023-06-22T04:35:23;19.02;74.53
73133;DHT22;61320;52.008;4.530;2023-06-22T04:37:49;19.09;74.62
73133;DHT22;61320;52.008;4.530;2023-06-22T04:40:15;19.09;74.71
73133;DHT22;61320;52.008;4.530;2023-06-22T04:42:41;19.17;74.68
73133;DHT22;61320;52.008;4.530;2023-06-22T04:45:19;19.23;74.68
73133;DHT22;61320;52.008;4.530;2023-06-22T04:47:44;19.27;74.65
73133;DHT22;61320;52.008;4.530;2023-06-22T04:50:13;19.33;74.72
73133;DHT22;61320;52.008;4.530;2023-06-22T04:52:38;19.40;74.81
73133;DHT22;61320;52.008;4.530;2023-06-22T04:55:04;19.45;74.76
73133;DHT22;61320;52.008;4.530;2023-06-22T04:57:30;19.49;74.87
73133;DHT22;61320;52.008;4.530;2023-06-22T04:59:59;19.50;74.84
73133;DHT22;61320;52.008;4.530;2023-06-22T05:02:38;19.54;74.82
73133;DHT22;61320;52.008;4.530;2023-06-22T05:05:04;19.57;74.81
73133;DHT22;61320;52.008;4.530;2023-06-22T05:07:35;19.63;74.76
73133;DHT22;61320;52.008;4.530;2023-06-22T05:10:02;19.67;74.83
73133;DHT22;61320;52.008;4.530;2023-06-22T05:12:30;19.66;74.81
73133;DHT22;61320;52.008;4.530;2023-06-22T05:14:56;19.71;74.85
73133;DHT22;61320;52.008;4.530;2023-06-22T05:17:21;19.77;74.83
73133;DHT22;61320;52.008;4.530;2023-06-22T05:19:47;19.82;74.78
73133;DHT22;61320;52.008;4.530;2023-06-22T05:22:16;19.88;74.88
73133;DHT22;61320;52.008;4.530;2023-06-22T05:24:42;19.94;74.78
73133;DHT22;61320;52.008;4.530;2023-06-22T05:27:08;19.95;74.69
73133;DHT22;61320;52.008;4.530;2023-06-22T05:29:34;19.99;74.72
73133;DHT22;61320;52.008;4.530;2023-06-22T05:32:00;20.02;74.61
73133;DHT22;61320;52.008;4.530;2023-06-22T05:34:26;20.06;74.63
73133;DHT22;61320;52.008;4.530;2023-06-22T05:39:17;20.11;74.55
73133;DHT22;61320;52.008;4.530;2023-06-22T05:41:44;20.16;74.49
73133;DHT22;61320;52.008;4.530;2023-06-22T05:44:10;20.22;74.41
73133;DHT22;61320;52.008;4.530;2023-06-22T05:46:35;20.26;74.45
73133;DHT22;61320;52.008;4.530;2023-06-22T05:49:01;20.28;74.49
73133;DHT22;61320;52.008;4.530;2023-06-22T05:51:27;20.32;74.42
73133;DHT22;61320;52.008;4.530;2023-06-22T05:53:52;20.35;74.33
73133;DHT22;61320;52.008;4.530;2023-06-22T05:56:18;20.37;74.17
73133;DHT22;61320;52.008;4.530;2023-06-22T05:58:44;20.45;74.15
73133;DHT22;61320;52.008;4.530;2023-06-22T06:01:09;20.50;74.18
73133;DHT22;61320;52.008;4.530;2023-06-22T06:03:35;20.53;74.18
73133;DHT22;61320;52.008;4.530;2023-06-22T06:06:07;20.60;74.22
73133;DHT22;61320;52.008;4.530;2023-06-22T06:08:32;20.62;74.15
73133;DHT22;61320;52.008;4.530;2023-06-22T06:10:58;20.66;74.11
73133;DHT22;61320;52.008;4.530;2023-06-22T06:13:24;20.70;74.12
73133;DHT22;61320;52.008;4.530;2023-06-22T06:15:49;20.74;74.09
73133;DHT22;61320;52.008;4.530;2023-06-22T06:18:16;20.83;74.10
73133;DHT22;61320;52.008;4.530;2023-06-22T06:20:42;20.88;73.99
73133;DHT22;61320;52.008;4.530;2023-06-22T06:23:08;20.94;73.95
73133;DHT22;61320;52.008;4.530;2023-06-22T06:25:33;20.98;73.89
73133;DHT22;61320;52.008;4.530;2023-06-22T06:27:59;21.05;73.85
73133;DHT22;61320;52.008;4.530;2023-06-22T06:30:25;21.08;73.43
73133;DHT22;61320;52.008;4.530;2023-06-22T06:32:50;21.14;73.81
73133;DHT22;61320;52.008;4.530;2023-06-22T06:35:16;21.20;73.68
73133;DHT22;61320;52.008;4.530;2023-06-22T06:37:47;21.27;73.49
73133;DHT22;61320;52.008;4.530;2023-06-22T06:40:15;21.35;73.57
73133;DHT22;61320;52.008;4.530;2023-06-22T06:42:44;21.41;73.23
73133;DHT22;61320;52.008;4.530;2023-06-22T06:47:43;21.51;73.11
73133;DHT22;61320;52.008;4.530;2023-06-22T06:50:09;21.56;73.13
73133;DHT22;61320;52.008;4.530;2023-06-22T06:52:36;21.59;73.16
73133;DHT22;61320;52.008;4.530;2023-06-22T06:55:02;21.65;72.50
73133;DHT22;61320;52.008;4.530;2023-06-22T06:57:30;21.67;72.65
73133;DHT22;61320;52.008;4.530;2023-06-22T06:59:58;21.73;72.47
73133;DHT22;61320;52.008;4.530;2023-06-22T07:02:24;21.75;72.30
73133;DHT22;61320;52.008;4.530;2023-06-22T07:04:49;21.79;72.24
73133;DHT22;61320;52.008;4.530;2023-06-22T07:07:15;21.86;71.64
73133;DHT22;61320;52.008;4.530;2023-06-22T07:09:41;21.92;71.83
73133;DHT22;61320;52.008;4.530;2023-06-22T07:12:07;22.00;71.76
73133;DHT22;61320;52.008;4.530;2023-06-22T07:14:32;22.10;71.84
73133;DHT22;61320;52.008;4.530;2023-06-22T07:16:58;22.16;71.93
73133;DHT22;61320;52.008;4.530;2023-06-22T07:19:27;22.24;71.75
73133;DHT22;61320;52.008;4.530;2023-06-22T07:21:54;22.29;70.85
73133;DHT22;61320;52.008;4.530;2023-06-22T07:24:23;22.36;69.90
73133;DHT22;61320;52.008;4.530;2023-06-22T07:26:50;22.41;69.29
73133;DHT22;61320;52.008;4.530;2023-06-22T07:29:21;22.44;68.74
73133;DHT22;61320;52.008;4.530;2023-06-22T07:31:48;22.50;68.88
73133;DHT22;61320;52.008;4.530;2023-06-22T07:34:15;22.54;68.47
73133;DHT22;61320;52.008;4.530;2023-06-22T07:36:40;22.60;68.20
73133;DHT22;61320;52.008;4.530;2023-06-22T07:39:06;22.62;67.77
73133;DHT22;61320;52.008;4.530;2023-06-22T07:41:31;22.68;67.12
73133;DHT22;61320;52.008;4.530;2023-06-22T07:43:57;22.78;66.73
73133;DHT22;61320;52.008;4.530;2023-06-22T07:46:23;22.81;66.21
73133;DHT22;61320;52.008;4.530;2023-06-22T07:48:48;22.88;65.52
73133;DHT22;61320;52.008;4.530;2023-06-22T07:51:14;22.96;66.14
73133;DHT22;61320;52.008;4.530;2023-06-22T07:53:43;23.02;66.08
73133;DHT22;61320;52.008;4.530;2023-06-22T07:56:13;23.05;65.29
73133;DHT22;61320;52.008;4.530;2023-06-22T07:58:47;23.12;65.57
73133;DHT22;61320;52.008;4.530;2023-06-22T08:01:16;23.20;64.44
73133;DHT22;61320;52.008;4.530;2023-06-22T08:06:08;23.30;63.71
73133;DHT22;61320;52.008;4.530;2023-06-22T08:08:37;23.37;63.62
73133;DHT22;61320;52.008;4.530;2023-06-22T08:11:03;23.50;64.43
73133;DHT22;61320;52.008;4.530;2023-06-22T08:13:28;23.58;63.65
73133;DHT22;61320;52.008;4.530;2023-06-22T08:15:54;23.66;63.75
73133;DHT22;61320;52.008;4.530;2023-06-22T08:18:20;23.74;63.65
73133;DHT22;61320;52.008;4.530;2023-06-22T08:20:45;23.81;63.30
73133;DHT22;61320;52.008;4.530;2023-06-22T08:23:11;23.89;62.98
73133;DHT22;61320;52.008;4.530;2023-06-22T08:25:36;23.95;62.83
73133;DHT22;61320;52.008;4.530;2023-06-22T08:28:03;24.06;62.86
73133;DHT22;61320;52.008;4.530;2023-06-22T08:32:55;24.19;61.91
73133;DHT22;61320;52.008;4.530;2023-06-22T08:35:22;24.25;62.04
73133;DHT22;61320;52.008;4.530;2023-06-22T08:37:48;24.35;61.42
73133;DHT22;61320;52.008;4.530;2023-06-22T08:40:18;24.46;61.79
73133;DHT22;61320;52.008;4.530;2023-06-22T08:42:46;24.55;61.46
73133;DHT22;61320;52.008;4.530;2023-06-22T08:45:12;24.62;62.06
73133;DHT22;61320;52.008;4.530;2023-06-22T08:47:39;24.66;60.75
73133;DHT22;61320;52.008;4.530;2023-06-22T08:50:05;24.76;61.18
73133;DHT22;61320;52.008;4.530;2023-06-22T08:52:32;24.84;60.47
73133;DHT22;61320;52.008;4.530;2023-06-22T08:54:57;24.94;61.79
73133;DHT22;61320;52.008;4.530;2023-06-22T08:57:26;25.04;61.04
73133;DHT22;61320;52.008;4.530;2023-06-22T08:59:52;25.14;61.21
73133;DHT22;61320;52.008;4.530;2023-06-22T09:02:18;25.25;61.52
73133;DHT22;61320;52.008;4.530;2023-06-22T09:04:46;25.32;60.73
73133;DHT22;61320;52.008;4.530;2023-06-22T09:07:11;25.42;61.14
73133;DHT22;61320;52.008;4.530;2023-06-22T09:09:37;25.49;61.19
73133;DHT22;61320;52.008;4.530;2023-06-22T09:12:02;25.62;60.16
73133;DHT22;61320;52.008;4.530;2023-06-22T09:14:28;25.72;60.97
73133;DHT22;61320;52.008;4.530;2023-06-22T09:16:53;25.81;60.50
73133;DHT22;61320;52.008;4.530;2023-06-22T09:19:19;25.85;59.62
73133;DHT22;61320;52.008;4.530;2023-06-22T09:21:44;25.89;59.38
73133;DHT22;61320;52.008;4.530;2023-06-22T09:24:10;25.97;58.18
73133;DHT22;61320;52.008;4.530;2023-06-22T09:26:35;25.99;57.83
73133;DHT22;61320;52.008;4.530;2023-06-22T09:29:01;26.07;58.76
73133;DHT22;61320;52.008;4.530;2023-06-22T09:31:26;26.14;59.70
73133;DHT22;61320;52.008;4.530;2023-06-22T09:33:53;26.20;59.00
73133;DHT22;61320;52.008;4.530;2023-06-22T09:36:22;26.27;59.85
73133;DHT22;61320;52.008;4.530;2023-06-22T09:58:12;26.45;57.92
73133;DHT22;61320;52.008;4.530;2023-06-22T10:00:38;26.45;57.40
73133;DHT22;61320;52.008;4.530;2023-06-22T10:03:03;26.41;57.52
73133;DHT22;61320;52.008;4.530;2023-06-22T10:05:29;26.47;57.96
73133;DHT22;61320;52.008;4.530;2023-06-22T10:07:54;26.41;57.96
73133;DHT22;61320;52.008;4.530;2023-06-22T10:10:20;26.43;58.43
73133;DHT22;61320;52.008;4.530;2023-06-22T10:12:47;26.41;58.54
73133;DHT22;61320;52.008;4.530;2023-06-22T11:32:59;26.20;57.06
73133;DHT22;61320;52.008;4.530;2023-06-22T11:35:25;26.21;58.06
73133;DHT22;61320;52.008;4.530;2023-06-22T11:37:51;26.20;58.77
73133;DHT22;61320;52.008;4.530;2023-06-22T11:40:16;26.13;58.96
73133;DHT22;61320;52.008;4.530;2023-06-22T11:42:43;26.14;59.23
73133;DHT22;61320;52.008;4.530;2023-06-22T11:45:09;26.10;59.14
73133;DHT22;61320;52.008;4.530;2023-06-22T11:47:35;26.06;59.03
73133;DHT22;61320;52.008;4.530;2023-06-22T11:50:02;26.03;57.48
73133;DHT22;61320;52.008;4.530;2023-06-22T11:52:27;26.04;59.12
73133;DHT22;61320;52.008;4.530;2023-06-22T11:54:53;26.02;60.13
73133;DHT22;61320;52.008;4.530;2023-06-22T11:57:18;25.99;59.37
73133;DHT22;61320;52.008;4.530;2023-06-22T11:59:44;25.97;59.63
73133;DHT22;61320;52.008;4.530;2023-06-22T12:02:09;25.97;60.72
73133;DHT22;61320;52.008;4.530;2023-06-22T12:04:35;25.96;61.29
73133;DHT22;61320;52.008;4.530;2023-06-22T12:07:00;25.93;61.45
73133;DHT22;61320;52.008;4.530;2023-06-22T12:09:26;25.89;60.36
73133;DHT22;61320;52.008;4.530;2023-06-22T12:11:52;25.86;60.41
73133;DHT22;61320;52.008;4.530;2023-06-22T12:14:17;25.88;60.45
73133;DHT22;61320;52.008;4.530;2023-06-22T12:16:42;25.89;61.09
73133;DHT22;61320;52.008;4.530;2023-06-22T12:19:10;25.85;61.97
73133;DHT22;61320;52.008;4.530;2023-06-22T12:21:37;25.82;61.55
73133;DHT22;61320;52.008;4.530;2023-06-22T12:24:03;25.82;62.12
73133;DHT22;61320;52.008;4.530;2023-06-22T12:26:28;25.86;62.20
73133;DHT22;61320;52.008;4.530;2023-06-22T12:28:54;25.88;62.52
73133;DHT22;61320;52.008;4.530;2023-06-22T12:31:20;25.90;63.12
73133;DHT22;61320;52.008;4.530;2023-06-22T12:33:45;25.83;62.60
73133;DHT22;61320;52.008;4.530;2023-06-22T12:36:10;25.85;63.19
73133;DHT22;61320;52.008;4.530;2023-06-22T12:38:36;25.83;62.72
73133;DHT22;61320;52.008;4.530;2023-06-22T12:41:02;25.83;63.03
73133;DHT22;61320;52.008;4.530;2023-06-22T12:43:27;25.79;63.05
73133;DHT22;61320;52.008;4.530;2023-06-22T12:45:53;25.81;63.33
73133;DHT22;61320;52.008;4.530;2023-06-22T12:48:18;25.82;63.77
73133;DHT22;61320;52.008;4.530;2023-06-22T12:50:44;25.79;64.21
73133;DHT22;61320;52.008;4.530;2023-06-22T12:53:10;25.78;63.25
73133;DHT22;61320;52.008;4.530;2023-06-22T12:55:35;25.78;63.35
73133;DHT22;61320;52.008;4.530;2023-06-22T12:58:00;25.76;63.52
73133;DHT22;61320;52.008;4.530;2023-06-22T13:00:26;25.75;63.14
73133;DHT22;61320;52.008;4.530;2023-06-22T13:02:52;25.72;63.50
73133;DHT22;61320;52.008;4.530;2023-06-22T13:05:18;25.68;63.27
73133;DHT22;61320;52.008;4.530;2023-06-22T13:07:44;25.69;63.54
73133;DHT22;61320;52.008;4.530;2023-06-22T13:10:11;25.71;63.41
73133;DHT22;61320;52.008;4.530;2023-06-22T13:12:36;25.68;63.91
73133;DHT22;61320;52.008;4.530;2023-06-22T13:15:02;25.69;63.58
73133;DHT22;61320;52.008;4.530;2023-06-22T13:17:28;25.69;63.41
73133;DHT22;61320;52.008;4.530;2023-06-22T13:19:54;25.63;63.54
73133;DHT22;61320;52.008;4.530;2023-06-22T13:22:31;25.65;63.61
73133;DHT22;61320;52.008;4.530;2023-06-22T13:24:57;25.62;64.04
73133;DHT22;61320;52.008;4.530;2023-06-22T13:27:23;25.61;64.27
73133;DHT22;61320;52.008;4.530;2023-06-22T13:29:49;25.59;64.05
73133;DHT22;61320;52.008;4.530;2023-06-22T13:32:15;25.57;64.16
73133;DHT22;61320;52.008;4.530;2023-06-22T13:34:40;25.57;64.52
73133;DHT22;61320;52.008;4.530;2023-06-22T13:37:06;25.55;64.08
73133;DHT22;61320;52.008;4.530;2023-06-22T13:39:31;25.49;63.59
73133;DHT22;61320;52.008;4.530;2023-06-22T13:41:57;25.45;63.92
73133;DHT22;61320;52.008;4.530;2023-06-22T13:44:23;25.39;64.48
73133;DHT22;61320;52.008;4.530;2023-06-22T13:46:53;25.37;64.77
73133;DHT22;61320;52.008;4.530;2023-06-22T13:49:18;25.35;64.42
73133;DHT22;61320;52.008;4.530;2023-06-22T13:51:44;25.35;65.14
73133;DHT22;61320;52.008;4.530;2023-06-22T13:54:09;25.35;65.20
73133;DHT22;61320;52.008;4.530;2023-06-22T13:56:35;25.30;65.15
73133;DHT22;61320;52.008;4.530;2023-06-22T13:59:00;25.31;65.31
73133;DHT22;61320;52.008;4.530;2023-06-22T14:01:26;25.27;65.85
73133;DHT22;61320;52.008;4.530;2023-06-22T14:03:52;25.27;65.93
73133;DHT22;61320;52.008;4.530;2023-06-22T14:06:17;25.24;66.11
73133;DHT22;61320;52.008;4.530;2023-06-22T14:08:43;25.24;66.00
73133;DHT22;61320;52.008;4.530;2023-06-22T14:11:08;25.24;66.21
73133;DHT22;61320;52.008;4.530;2023-06-22T14:13:33;25.23;66.80
73133;DHT22;61320;52.008;4.530;2023-06-22T14:16:02;25.18;66.96
73133;DHT22;61320;52.008;4.530;2023-06-22T14:18:27;25.18;66.98
73133;DHT22;61320;52.008;4.530;2023-06-22T14:20:53;25.17;67.04
73133;DHT22;61320;52.008;4.530;2023-06-22T14:23:19;25.17;67.24
73133;DHT22;61320;52.008;4.530;2023-06-22T14:25:45;25.20;67.35
73133;DHT22;61320;52.008;4.530;2023-06-22T14:28:10;25.17;66.69
73133;DHT22;61320;52.008;4.530;2023-06-22T14:30:36;25.17;67.15
73133;DHT22;61320;52.008;4.530;2023-06-22T14:33:01;25.11;67.48
73133;DHT22;61320;52.008;4.530;2023-06-22T14:35:27;25.07;67.18
73133;DHT22;61320;52.008;4.530;2023-06-22T14:37:52;25.07;67.57
73133;DHT22;61320;52.008;4.530;2023-06-22T14:40:18;25.07;67.97
73133;DHT22;61320;52.008;4.530;2023-06-22T14:42:43;25.07;68.16
73133;DHT22;61320;52.008;4.530;2023-06-22T14:45:09;25.06;68.36
73133;DHT22;61320;52.008;4.530;2023-06-22T14:47:34;25.04;68.56
73133;DHT22;61320;52.008;4.530;2023-06-22T14:50:00;25.02;68.68
73133;DHT22;61320;52.008;4.530;2023-06-22T14:52:26;24.97;68.68
73133;DHT22;61320;52.008;4.530;2023-06-22T14:54:52;24.95;68.81
73133;DHT22;61320;52.008;4.530;2023-06-22T14:57:18;24.91;68.63
73133;DHT22;61320;52.008;4.530;2023-06-22T14:59:46;24.87;69.18
73133;DHT22;61320;52.008;4.530;2023-06-22T15:02:13;24.83;69.12
73133;DHT22;61320;52.008;4.530;2023-06-22T15:04:38;24.77;68.96
73133;DHT22;61320;52.008;4.530;2023-06-22T15:07:04;24.73;67.94
73133;DHT22;61320;52.008;4.530;2023-06-22T15:09:30;24.63;67.60
73133;DHT22;61320;52.008;4.530;2023-06-22T15:11:55;24.57;67.64
73133;DHT22;61320;52.008;4.530;2023-06-22T15:14:21;24.49;67.18
73133;DHT22;61320;52.008;4.530;2023-06-22T15:16:46;24.42;66.54
73133;DHT22;61320;52.008;4.530;2023-06-22T15:19:12;24.32;66.60
73133;DHT22;61320;52.008;4.530;2023-06-22T15:21:38;24.30;66.76
73133;DHT22;61320;52.008;4.530;2023-06-22T15:24:04;24.19;66.62
73133;DHT22;61320;52.008;4.530;2023-06-22T15:26:29;24.15;67.15
73133;DHT22;61320;52.008;4.530;2023-06-22T15:28:55;24.08;67.14
73133;DHT22;61320;52.008;4.530;2023-06-22T15:31:21;23.97;67.21
73133;DHT22;61320;52.008;4.530;2023-06-22T15:33:47;23.89;67.97
73133;DHT22;61320;52.008;4.530;2023-06-22T15:36:12;23.87;68.26
73133;DHT22;61320;52.008;4.530;2023-06-22T15:38:38;23.81;68.31
73133;DHT22;61320;52.008;4.530;2023-06-22T15:41:03;23.77;68.75
73133;DHT22;61320;52.008;4.530;2023-06-22T15:43:29;23.70;68.42
73133;DHT22;61320;52.008;4.530;2023-06-22T15:45:54;23.60;68.16
73133;DHT22;61320;52.008;4.530;2023-06-22T15:48:21;23.50;68.69
73133;DHT22;61320;52.008;4.530;2023-06-22T15:55:37;23.27;69.58
73133;DHT22;61320;52.008;4.530;2023-06-22T15:58:03;23.18;68.78
73133;DHT22;61320;52.008;4.530;2023-06-22T16:00:28;23.13;69.29
73133;DHT22;61320;52.008;4.530;2023-06-22T16:02:54;23.10;69.51
73133;DHT22;61320;52.008;4.530;2023-06-22T16:05:19;23.05;69.58
73133;DHT22;61320;52.008;4.530;2023-06-22T16:07:45;22.98;69.81
73133;DHT22;61320;52.008;4.530;2023-06-22T16:10:10;22.95;70.76
73133;DHT22;61320;52.008;4.530;2023-06-22T16:12:36;22.92;68.98
73133;DHT22;61320;52.008;4.530;2023-06-22T16:15:03;22.87;69.56
73133;DHT22;61320;52.008;4.530;2023-06-22T16:17:28;22.81;69.96
73133;DHT22;61320;52.008;4.530;2023-06-22T16:19:54;22.78;70.05
73133;DHT22;61320;52.008;4.530;2023-06-22T16:22:21;22.78;70.79
73133;DHT22;61320;52.008;4.530;2023-06-22T16:24:47;22.76;70.99
73133;DHT22;61320;52.008;4.530;2023-06-22T16:27:13;22.72;70.97
73133;DHT22;61320;52.008;4.530;2023-06-22T16:29:38;22.69;71.74
73133;DHT22;61320;52.008;4.530;2023-06-22T16:32:08;22.71;71.86
73133;DHT22;61320;52.008;4.530;2023-06-22T16:34:33;22.71;71.94
73133;DHT22;61320;52.008;4.530;2023-06-22T16:36:59;22.65;71.17
73133;DHT22;61320;52.008;4.530;2023-06-22T16:39:25;22.64;71.68
73133;DHT22;61320;52.008;4.530;2023-06-22T16:41:51;22.62;71.24
73133;DHT22;61320;52.008;4.530;2023-06-22T16:44:17;22.61;71.98
73133;DHT22;61320;52.008;4.530;2023-06-22T16:46:44;22.62;72.31
73133;DHT22;61320;52.008;4.530;2023-06-22T16:49:09;22.60;72.41
73133;DHT22;61320;52.008;4.530;2023-06-22T16:51:34;22.58;72.30
73133;DHT22;61320;52.008;4.530;2023-06-22T16:54:00;22.58;72.32
73133;DHT22;61320;52.008;4.530;2023-06-22T16:56:27;22.55;72.29
73133;DHT22;61320;52.008;4.530;2023-06-22T16:58:55;22.58;72.20
73133;DHT22;61320;52.008;4.530;2023-06-22T17:01:22;22.57;72.24
73133;DHT22;61320;52.008;4.530;2023-06-22T17:03:59;22.55;72.10
73133;DHT22;61320;52.008;4.530;2023-06-22T17:06:26;22.55;72.13
73133;DHT22;61320;52.008;4.530;2023-06-22T17:08:55;22.54;71.65
73133;DHT22;61320;52.008;4.530;2023-06-22T17:11:21;22.51;71.51
73133;DHT22;61320;52.008;4.530;2023-06-22T17:13:47;22.47;71.75
73133;DHT22;61320;52.008;4.530;2023-06-22T17:16:16;22.48;71.67
73133;DHT22;61320;52.008;4.530;2023-06-22T17:18:43;22.45;71.49
73133;DHT22;61320;52.008;4.530;2023-06-22T17:21:12;22.43;71.45
73133;DHT22;61320;52.008;4.530;2023-06-22T17:23:38;22.38;71.70
73133;DHT22;61320;52.008;4.530;2023-06-22T17:26:05;22.38;71.62